Airfield :
LOGIN :

Register | Disclaimer

   EN    FR    IT 

 










Legend :    VFR   Marginal VFR   IFR   Intensive IFR   Very Intensive IFR
Visi :
Ceiling :
>= 8 km
>= 3000ft
5 to 8 km
1000 to 3000 ft
1500m to 5 km
500 to 1000 ft
800 to 1500m
200 to 500 ft
< 800m
< 200 ft
Symbols :   Thunderstorms  Fog  Heavy snow  Heavy precipitations  Wind > 20 kt
SIGMETs :     Misc.  Thunderstorms  Icing  Turbulence  Mountain Waves  Volcanic Ashes







- Airport Elevation : 870 ft
- IATA code : ETZ
- Download approach charts


LFJL - Metz Nancy Lorraine

CURRENT METAR :
  • 281230Z AUTO 25013KT 9999 FEW036/// SCT042/// 22/12 Q1016 NOSIG

EXPIRED METARs :
  • 281200Z AUTO 23012KT 9999 SCT034/// SCT041/// BKN062/// 21/12 Q1016 NOSIG
  • 281130Z AUTO 25012KT 220V280 9999 SCT036/// BKN045/// BKN058/// 21/12 Q1016 NOSIG
  • 281100Z AUTO 25012KT 9999 BKN033/// BKN044/// BKN056/// 21/13 Q1016 TEMPO FEW020TCU
  • 281030Z AUTO 26012KT 230V290 9999 SCT026/// SCT033/// BKN040/// 19/12 Q1016 TEMPO FEW020TCU
  • 281000Z AUTO 24008KT 210V270 9999 FEW020/// BKN031/// BKN180/// 19/14 Q1016 TEMPO FEW020TCU

TAF TAF LFJL
Valid from the 28 at 06:00 until the 29 at 06:00 UTC


280500Z 2806/2906 24008KT CAVOK
PROB30
TEMPO 2806/2812 FEW020TCU
No reported NOTAMs for that airfield.



MET'MAP, your aeronautical weather chart ! - Copyright ORBIFLY December 2007 - Disclaimer

ORBIFLY MET'MAP TEAM :

Programming & Development : Alexandra Zaïnal
Concept & Development : Baudouin d'Aumeries
Co-Development & Prog : Marc-Olivier Méhu
Technical & hardware support : Manuel Goepfert

Contact : metmap@orbifly.com




SOURCES & CREDITS :

   NOAA